sensor_id;sensor_type;location;lat;lon;timestamp;temperature;humidity
69626;DHT22;56847;51.984;5.088;2022-12-18T00:01:49;2.00;80.80
69626;DHT22;56847;51.984;5.088;2022-12-18T00:04:24;2.00;80.60
69626;DHT22;56847;51.984;5.088;2022-12-18T00:06:51;2.00;80.60
69626;DHT22;56847;51.984;5.088;2022-12-18T00:09:19;2.10;80.60
69626;DHT22;56847;51.984;5.088;2022-12-18T00:11:46;2.10;80.30
69626;DHT22;56847;51.984;5.088;2022-12-18T00:14:14;2.00;80.20
69626;DHT22;56847;51.984;5.088;2022-12-18T00:16:44;2.00;80.20
69626;DHT22;56847;51.984;5.088;2022-12-18T00:19:12;2.00;80.20
69626;DHT22;56847;51.984;5.088;2022-12-18T00:21:40;1.90;79.80
69626;DHT22;56847;51.984;5.088;2022-12-18T00:24:09;1.90;80.10
69626;DHT22;56847;51.984;5.088;2022-12-18T00:26:37;1.80;80.10
69626;DHT22;56847;51.984;5.088;2022-12-18T00:29:10;1.90;80.20
69626;DHT22;56847;51.984;5.088;2022-12-18T00:31:37;1.90;80.10
69626;DHT22;56847;51.984;5.088;2022-12-18T00:34:12;1.90;79.90
69626;DHT22;56847;51.984;5.088;2022-12-18T00:36:40;1.90;80.00
69626;DHT22;56847;51.984;5.088;2022-12-18T00:39:10;1.80;80.00
69626;DHT22;56847;51.984;5.088;2022-12-18T00:41:44;1.80;79.90
69626;DHT22;56847;51.984;5.088;2022-12-18T00:44:30;1.80;79.90
69626;DHT22;56847;51.984;5.088;2022-12-18T00:47:06;1.80;80.00
69626;DHT22;56847;51.984;5.088;2022-12-18T00:49:38;1.80;80.00
69626;DHT22;56847;51.984;5.088;2022-12-18T00:52:14;1.80;79.90
69626;DHT22;56847;51.984;5.088;2022-12-18T00:54:42;1.80;79.80
69626;DHT22;56847;51.984;5.088;2022-12-18T00:57:24;1.80;79.60
69626;DHT22;56847;51.984;5.088;2022-12-18T00:59:59;1.70;79.70
69626;DHT22;56847;51.984;5.088;2022-12-18T01:02:38;1.70;79.50
69626;DHT22;56847;51.984;5.088;2022-12-18T01:05:10;1.70;79.50
69626;DHT22;56847;51.984;5.088;2022-12-18T01:07:42;1.70;79.60
69626;DHT22;56847;51.984;5.088;2022-12-18T01:10:19;1.70;79.70
69626;DHT22;56847;51.984;5.088;2022-12-18T01:12:58;1.70;79.70
69626;DHT22;56847;51.984;5.088;2022-12-18T01:15:28;1.70;79.60
69626;DHT22;56847;51.984;5.088;2022-12-18T01:18:01;1.70;79.60
69626;DHT22;56847;51.984;5.088;2022-12-18T01:20:31;1.60;79.70
69626;DHT22;56847;51.984;5.088;2022-12-18T01:23:07;1.60;79.80
69626;DHT22;56847;51.984;5.088;2022-12-18T01:25:44;1.60;79.90
69626;DHT22;56847;51.984;5.088;2022-12-18T01:28:24;1.60;79.80
69626;DHT22;56847;51.984;5.088;2022-12-18T01:31:15;1.60;79.60
69626;DHT22;56847;51.984;5.088;2022-12-18T01:37:06;1.60;79.80
69626;DHT22;56847;51.984;5.088;2022-12-18T01:40:18;1.60;79.70
69626;DHT22;56847;51.984;5.088;2022-12-18T01:43:16;1.60;79.50
69626;DHT22;56847;51.984;5.088;2022-12-18T01:46:05;1.50;79.40
69626;DHT22;56847;51.984;5.088;2022-12-18T01:48:59;1.50;79.50
69626;DHT22;56847;51.984;5.088;2022-12-18T01:51:37;1.50;79.60
69626;DHT22;56847;51.984;5.088;2022-12-18T01:54:10;1.40;79.30
69626;DHT22;56847;51.984;5.088;2022-12-18T01:57:24;1.40;79.50
69626;DHT22;56847;51.984;5.088;2022-12-18T02:00:24;1.40;79.50
69626;DHT22;56847;51.984;5.088;2022-12-18T02:03:11;1.40;79.60
69626;DHT22;56847;51.984;5.088;2022-12-18T02:07:21;1.40;79.60
69626;DHT22;56847;51.984;5.088;2022-12-18T02:16:48;1.30;79.60
69626;DHT22;56847;51.984;5.088;2022-12-18T02:24:25;1.30;79.50
69626;DHT22;56847;51.984;5.088;2022-12-18T02:27:13;1.30;79.30
69626;DHT22;56847;51.984;5.088;2022-12-18T02:33:08;1.30;79.10
69626;DHT22;56847;51.984;5.088;2022-12-18T02:36:13;1.30;79.00
69626;DHT22;56847;51.984;5.088;2022-12-18T02:39:29;1.20;78.60
69626;DHT22;56847;51.984;5.088;2022-12-18T02:45:37;1.00;78.40
69626;DHT22;56847;51.984;5.088;2022-12-18T02:52:17;0.90;78.20
69626;DHT22;56847;51.984;5.088;2022-12-18T03:09:04;0.60;77.80
69626;DHT22;56847;51.984;5.088;2022-12-18T03:14:42;0.50;77.60
69626;DHT22;56847;51.984;5.088;2022-12-18T03:17:36;0.40;77.70
69626;DHT22;56847;51.984;5.088;2022-12-18T03:20:31;0.40;77.70
69626;DHT22;56847;51.984;5.088;2022-12-18T03:23:24;0.40;77.70
69626;DHT22;56847;51.984;5.088;2022-12-18T03:38:32;0.20;77.50
69626;DHT22;56847;51.984;5.088;2022-12-18T03:56:43;0.10;77.30
69626;DHT22;56847;51.984;5.088;2022-12-18T03:59:29;0.00;77.30
69626;DHT22;56847;51.984;5.088;2022-12-18T04:02:32;0.00;77.10
69626;DHT22;56847;51.984;5.088;2022-12-18T04:05:53;0.00;77.00
69626;DHT22;56847;51.984;5.088;2022-12-18T04:08:35;0.00;76.90
69626;DHT22;56847;51.984;5.088;2022-12-18T04:11:33;-0.10;76.80
69626;DHT22;56847;51.984;5.088;2022-12-18T04:14:21;-0.10;76.80
69626;DHT22;56847;51.984;5.088;2022-12-18T04:16:56;-0.10;76.80
69626;DHT22;56847;51.984;5.088;2022-12-18T06:01:48;-0.70;76.40
69626;DHT22;56847;51.984;5.088;2022-12-18T06:04:16;-0.70;76.40
69626;DHT22;56847;51.984;5.088;2022-12-18T06:06:42;-0.80;76.30
69626;DHT22;56847;51.984;5.088;2022-12-18T06:09:10;-0.80;76.40
69626;DHT22;56847;51.984;5.088;2022-12-18T06:11:37;-0.80;76.40
69626;DHT22;56847;51.984;5.088;2022-12-18T06:14:05;-0.80;76.40
69626;DHT22;56847;51.984;5.088;2022-12-18T06:16:33;-0.80;76.30
69626;DHT22;56847;51.984;5.088;2022-12-18T06:19:05;-0.80;76.30
69626;DHT22;56847;51.984;5.088;2022-12-18T06:21:32;-0.80;76.40
69626;DHT22;56847;51.984;5.088;2022-12-18T06:24:00;-0.80;76.40
69626;DHT22;56847;51.984;5.088;2022-12-18T06:26:27;-0.80;76.40
69626;DHT22;56847;51.984;5.088;2022-12-18T06:28:54;-0.80;76.50
69626;DHT22;56847;51.984;5.088;2022-12-18T06:31:21;-0.80;76.40
69626;DHT22;56847;51.984;5.088;2022-12-18T06:33:48;-0.80;76.40
69626;DHT22;56847;51.984;5.088;2022-12-18T06:36:15;-0.80;76.30
69626;DHT22;56847;51.984;5.088;2022-12-18T06:38:44;-0.90;76.20
69626;DHT22;56847;51.984;5.088;2022-12-18T06:41:13;-0.90;76.30
69626;DHT22;56847;51.984;5.088;2022-12-18T06:43:41;-0.80;76.40
69626;DHT22;56847;51.984;5.088;2022-12-18T06:46:09;-0.90;76.40
69626;DHT22;56847;51.984;5.088;2022-12-18T06:48:37;-0.90;76.30
69626;DHT22;56847;51.984;5.088;2022-12-18T06:51:04;-0.90;76.40
69626;DHT22;56847;51.984;5.088;2022-12-18T06:53:35;-0.90;76.30
69626;DHT22;56847;51.984;5.088;2022-12-18T06:56:06;-0.90;76.30
69626;DHT22;56847;51.984;5.088;2022-12-18T06:58:37;-0.90;76.40
69626;DHT22;56847;51.984;5.088;2022-12-18T07:01:06;-0.90;76.40
69626;DHT22;56847;51.984;5.088;2022-12-18T07:03:33;-0.90;76.30
69626;DHT22;56847;51.984;5.088;2022-12-18T07:06:01;-0.90;76.20
69626;DHT22;56847;51.984;5.088;2022-12-18T07:08:29;-1.00;76.30
69626;DHT22;56847;51.984;5.088;2022-12-18T07:11:02;-1.00;76.30
69626;DHT22;56847;51.984;5.088;2022-12-18T07:13:29;-1.00;76.30
69626;DHT22;56847;51.984;5.088;2022-12-18T07:16:36;-1.00;76.30
69626;DHT22;56847;51.984;5.088;2022-12-18T07:18:56;-1.00;76.20
69626;DHT22;56847;51.984;5.088;2022-12-18T07:21:24;-1.00;76.20
69626;DHT22;56847;51.984;5.088;2022-12-18T07:23:54;-1.00;76.30
69626;DHT22;56847;51.984;5.088;2022-12-18T07:26:21;-1.00;76.30
69626;DHT22;56847;51.984;5.088;2022-12-18T07:28:49;-1.00;76.30
69626;DHT22;56847;51.984;5.088;2022-12-18T07:31:21;-1.00;76.30
69626;DHT22;56847;51.984;5.088;2022-12-18T07:33:50;-1.00;76.40
69626;DHT22;56847;51.984;5.088;2022-12-18T07:36:17;-1.00;76.40
69626;DHT22;56847;51.984;5.088;2022-12-18T07:38:47;-1.00;76.50
69626;DHT22;56847;51.984;5.088;2022-12-18T07:41:16;-1.00;76.50
69626;DHT22;56847;51.984;5.088;2022-12-18T07:43:43;-1.00;76.60
69626;DHT22;56847;51.984;5.088;2022-12-18T07:46:11;-1.00;76.60
69626;DHT22;56847;51.984;5.088;2022-12-18T07:48:41;-1.00;76.70
69626;DHT22;56847;51.984;5.088;2022-12-18T07:51:10;-0.90;76.80
69626;DHT22;56847;51.984;5.088;2022-12-18T07:53:40;-0.90;76.80
69626;DHT22;56847;51.984;5.088;2022-12-18T07:56:11;-0.90;76.80
69626;DHT22;56847;51.984;5.088;2022-12-18T07:58:58;-0.90;76.90
69626;DHT22;56847;51.984;5.088;2022-12-18T08:01:26;-0.90;76.90
69626;DHT22;56847;51.984;5.088;2022-12-18T08:03:57;-0.80;77.10
69626;DHT22;56847;51.984;5.088;2022-12-18T08:06:24;-0.80;77.30
69626;DHT22;56847;51.984;5.088;2022-12-18T08:08:55;-0.80;77.50
69626;DHT22;56847;51.984;5.088;2022-12-18T08:11:23;-0.70;77.70
69626;DHT22;56847;51.984;5.088;2022-12-18T08:13:51;-0.70;77.70
69626;DHT22;56847;51.984;5.088;2022-12-18T08:16:19;-0.60;77.80
69626;DHT22;56847;51.984;5.088;2022-12-18T08:18:47;-0.60;77.60
69626;DHT22;56847;51.984;5.088;2022-12-18T08:21:23;-0.60;77.60
69626;DHT22;56847;51.984;5.088;2022-12-18T08:23:54;-0.60;77.80
69626;DHT22;56847;51.984;5.088;2022-12-18T08:26:21;-0.50;77.80
69626;DHT22;56847;51.984;5.088;2022-12-18T08:28:49;-0.50;77.90
69626;DHT22;56847;51.984;5.088;2022-12-18T08:31:17;-0.50;77.90
69626;DHT22;56847;51.984;5.088;2022-12-18T08:33:56;-0.50;77.90
69626;DHT22;56847;51.984;5.088;2022-12-18T08:36:23;-0.40;77.70
69626;DHT22;56847;51.984;5.088;2022-12-18T08:38:53;-0.50;77.70
69626;DHT22;56847;51.984;5.088;2022-12-18T08:41:21;-0.40;77.90
69626;DHT22;56847;51.984;5.088;2022-12-18T08:43:50;-0.40;78.00
69626;DHT22;56847;51.984;5.088;2022-12-18T08:46:38;-0.40;78.00
69626;DHT22;56847;51.984;5.088;2022-12-18T08:49:06;-0.40;78.20
69626;DHT22;56847;51.984;5.088;2022-12-18T08:51:34;-0.30;78.30
69626;DHT22;56847;51.984;5.088;2022-12-18T08:54:01;-0.30;78.50
69626;DHT22;56847;51.984;5.088;2022-12-18T08:56:29;-0.30;78.50
69626;DHT22;56847;51.984;5.088;2022-12-18T08:58:57;-0.20;78.50
69626;DHT22;56847;51.984;5.088;2022-12-18T09:01:24;-0.10;78.50
69626;DHT22;56847;51.984;5.088;2022-12-18T09:03:51;-0.10;78.40
69626;DHT22;56847;51.984;5.088;2022-12-18T09:06:20;-0.10;78.60
69626;DHT22;56847;51.984;5.088;2022-12-18T09:08:48;0.00;78.80
69626;DHT22;56847;51.984;5.088;2022-12-18T09:11:23;0.10;79.00
69626;DHT22;56847;51.984;5.088;2022-12-18T09:13:51;0.10;79.00
69626;DHT22;56847;51.984;5.088;2022-12-18T09:16:18;0.20;79.20
69626;DHT22;56847;51.984;5.088;2022-12-18T09:18:47;0.20;79.40
69626;DHT22;56847;51.984;5.088;2022-12-18T09:21:20;0.30;79.50
69626;DHT22;56847;51.984;5.088;2022-12-18T09:23:51;0.30;79.40
69626;DHT22;56847;51.984;5.088;2022-12-18T09:26:18;0.40;79.40
69626;DHT22;56847;51.984;5.088;2022-12-18T09:28:45;0.40;79.40
69626;DHT22;56847;51.984;5.088;2022-12-18T09:31:13;0.50;79.50
69626;DHT22;56847;51.984;5.088;2022-12-18T09:33:42;0.50;79.40
69626;DHT22;56847;51.984;5.088;2022-12-18T09:36:11;0.50;79.60
69626;DHT22;56847;51.984;5.088;2022-12-18T09:38:42;0.60;79.60
69626;DHT22;56847;51.984;5.088;2022-12-18T09:41:41;0.60;79.70
69626;DHT22;56847;51.984;5.088;2022-12-18T09:49:56;0.80;79.90
69626;DHT22;56847;51.984;5.088;2022-12-18T09:52:33;0.80;79.80
69626;DHT22;56847;51.984;5.088;2022-12-18T09:55:42;0.90;79.80
69626;DHT22;56847;51.984;5.088;2022-12-18T10:00:37;1.00;79.80
69626;DHT22;56847;51.984;5.088;2022-12-18T10:03:10;1.00;79.90
69626;DHT22;56847;51.984;5.088;2022-12-18T10:06:05;1.10;79.80
69626;DHT22;56847;51.984;5.088;2022-12-18T10:08:49;1.20;80.00
69626;DHT22;56847;51.984;5.088;2022-12-18T10:14:33;1.30;79.90
69626;DHT22;56847;51.984;5.088;2022-12-18T10:19:56;1.40;80.10
69626;DHT22;56847;51.984;5.088;2022-12-18T10:25:21;1.50;79.90
69626;DHT22;56847;51.984;5.088;2022-12-18T10:27:53;1.50;80.00
69626;DHT22;56847;51.984;5.088;2022-12-18T10:30:24;1.60;80.10
69626;DHT22;56847;51.984;5.088;2022-12-18T10:32:52;1.60;80.10
69626;DHT22;56847;51.984;5.088;2022-12-18T10:35:24;1.60;80.10
69626;DHT22;56847;51.984;5.088;2022-12-18T10:43:35;1.80;79.70
69626;DHT22;56847;51.984;5.088;2022-12-18T10:48:41;1.80;79.60
69626;DHT22;56847;51.984;5.088;2022-12-18T10:51:33;1.90;79.50
69626;DHT22;56847;51.984;5.088;2022-12-18T10:54:21;1.90;79.70
69626;DHT22;56847;51.984;5.088;2022-12-18T10:56:48;2.00;79.70
69626;DHT22;56847;51.984;5.088;2022-12-18T10:59:17;2.00;79.50
69626;DHT22;56847;51.984;5.088;2022-12-18T11:01:56;2.10;79.50
69626;DHT22;56847;51.984;5.088;2022-12-18T11:04:31;2.10;79.20
69626;DHT22;56847;51.984;5.088;2022-12-18T11:07:07;2.10;79.20
69626;DHT22;56847;51.984;5.088;2022-12-18T11:09:37;2.10;79.50
69626;DHT22;56847;51.984;5.088;2022-12-18T11:12:15;2.20;79.30
69626;DHT22;56847;51.984;5.088;2022-12-18T11:14:47;2.20;79.40
69626;DHT22;56847;51.984;5.088;2022-12-18T11:17:33;2.30;79.40
69626;DHT22;56847;51.984;5.088;2022-12-18T11:20:06;2.30;79.40
69626;DHT22;56847;51.984;5.088;2022-12-18T11:22:36;2.40;79.50
69626;DHT22;56847;51.984;5.088;2022-12-18T11:28:01;2.50;79.60
69626;DHT22;56847;51.984;5.088;2022-12-18T11:30:31;2.50;79.60
69626;DHT22;56847;51.984;5.088;2022-12-18T11:33:21;2.60;79.60
69626;DHT22;56847;51.984;5.088;2022-12-18T11:35:56;2.60;79.40
69626;DHT22;56847;51.984;5.088;2022-12-18T11:38:28;2.60;79.20
69626;DHT22;56847;51.984;5.088;2022-12-18T11:43:38;2.70;78.80
69626;DHT22;56847;51.984;5.088;2022-12-18T11:46:14;2.70;78.70
69626;DHT22;56847;51.984;5.088;2022-12-18T11:48:49;2.70;78.80
69626;DHT22;56847;51.984;5.088;2022-12-18T11:51:25;2.70;79.00
69626;DHT22;56847;51.984;5.088;2022-12-18T11:53:54;2.80;78.90
69626;DHT22;56847;51.984;5.088;2022-12-18T11:56:42;2.80;78.70
69626;DHT22;56847;51.984;5.088;2022-12-18T11:59:33;2.80;78.50
69626;DHT22;56847;51.984;5.088;2022-12-18T12:13:28;2.90;78.40
69626;DHT22;56847;51.984;5.088;2022-12-18T12:23:50;3.00;78.00
69626;DHT22;56847;51.984;5.088;2022-12-18T12:26:30;3.00;78.40
69626;DHT22;56847;51.984;5.088;2022-12-18T12:39:44;3.10;77.90
69626;DHT22;56847;51.984;5.088;2022-12-18T12:42:41;3.10;78.10
69626;DHT22;56847;51.984;5.088;2022-12-18T12:45:34;3.10;78.50
69626;DHT22;56847;51.984;5.088;2022-12-18T12:48:06;3.10;77.70
69626;DHT22;56847;51.984;5.088;2022-12-18T12:50:35;3.10;77.90
69626;DHT22;56847;51.984;5.088;2022-12-18T12:53:09;3.10;77.90
69626;DHT22;56847;51.984;5.088;2022-12-18T12:55:42;3.10;77.90
69626;DHT22;56847;51.984;5.088;2022-12-18T12:58:31;3.10;77.80
69626;DHT22;56847;51.984;5.088;2022-12-18T13:04:12;3.10;77.90
69626;DHT22;56847;51.984;5.088;2022-12-18T13:06:51;3.10;77.80
69626;DHT22;56847;51.984;5.088;2022-12-18T13:09:20;3.20;78.00
69626;DHT22;56847;51.984;5.088;2022-12-18T13:11:48;3.20;77.80
69626;DHT22;56847;51.984;5.088;2022-12-18T13:14:39;3.10;77.40
69626;DHT22;56847;51.984;5.088;2022-12-18T13:20:03;3.10;77.50
69626;DHT22;56847;51.984;5.088;2022-12-18T13:25:28;3.10;77.60
69626;DHT22;56847;51.984;5.088;2022-12-18T13:28:16;3.10;77.40
69626;DHT22;56847;51.984;5.088;2022-12-18T13:30:52;3.10;77.50
69626;DHT22;56847;51.984;5.088;2022-12-18T13:36:23;3.10;77.30
69626;DHT22;56847;51.984;5.088;2022-12-18T13:39:21;3.10;77.40
69626;DHT22;56847;51.984;5.088;2022-12-18T13:44:39;3.10;77.30
69626;DHT22;56847;51.984;5.088;2022-12-18T13:47:32;3.10;77.60
69626;DHT22;56847;51.984;5.088;2022-12-18T13:50:10;3.10;77.50
69626;DHT22;56847;51.984;5.088;2022-12-18T13:52:50;3.10;77.30
69626;DHT22;56847;51.984;5.088;2022-12-18T13:55:20;3.10;77.40
69626;DHT22;56847;51.984;5.088;2022-12-18T13:57:51;3.10;77.50
69626;DHT22;56847;51.984;5.088;2022-12-18T14:00:30;3.10;77.50
69626;DHT22;56847;51.984;5.088;2022-12-18T14:02:58;3.10;77.70
69626;DHT22;56847;51.984;5.088;2022-12-18T14:05:32;3.10;77.50
69626;DHT22;56847;51.984;5.088;2022-12-18T14:08:05;3.10;77.60
69626;DHT22;56847;51.984;5.088;2022-12-18T14:10:35;3.10;77.50
69626;DHT22;56847;51.984;5.088;2022-12-18T14:13:28;3.10;77.50
69626;DHT22;56847;51.984;5.088;2022-12-18T14:15:56;3.10;77.50
69626;DHT22;56847;51.984;5.088;2022-12-18T14:21:05;3.10;77.40
69626;DHT22;56847;51.984;5.088;2022-12-18T14:23:34;3.10;77.30
69626;DHT22;56847;51.984;5.088;2022-12-18T14:26:19;3.20;77.30
69626;DHT22;56847;51.984;5.088;2022-12-18T14:28:47;3.20;77.50
69626;DHT22;56847;51.984;5.088;2022-12-18T14:31:37;3.10;77.20
69626;DHT22;56847;51.984;5.088;2022-12-18T14:34:04;3.10;77.20
69626;DHT22;56847;51.984;5.088;2022-12-18T14:36:33;3.10;77.30
69626;DHT22;56847;51.984;5.088;2022-12-18T14:39:00;3.10;77.00
69626;DHT22;56847;51.984;5.088;2022-12-18T14:41:27;3.10;77.20
69626;DHT22;56847;51.984;5.088;2022-12-18T14:43:55;3.10;77.20
69626;DHT22;56847;51.984;5.088;2022-12-18T14:46:36;3.10;77.30
69626;DHT22;56847;51.984;5.088;2022-12-18T14:49:31;3.10;76.90
69626;DHT22;56847;51.984;5.088;2022-12-18T14:52:23;3.10;76.90
69626;DHT22;56847;51.984;5.088;2022-12-18T14:54:52;3.00;76.90
69626;DHT22;56847;51.984;5.088;2022-12-18T14:57:24;3.00;77.00
69626;DHT22;56847;51.984;5.088;2022-12-18T14:59:52;3.10;77.10
69626;DHT22;56847;51.984;5.088;2022-12-18T15:02:25;3.10;77.10
69626;DHT22;56847;51.984;5.088;2022-12-18T15:05:16;3.10;77.00
69626;DHT22;56847;51.984;5.088;2022-12-18T15:07:50;3.10;77.00
69626;DHT22;56847;51.984;5.088;2022-12-18T15:10:23;3.10;76.90
69626;DHT22;56847;51.984;5.088;2022-12-18T15:18:18;3.10;77.00
69626;DHT22;56847;51.984;5.088;2022-12-18T15:21:07;3.10;76.70
69626;DHT22;56847;51.984;5.088;2022-12-18T15:23:46;3.10;76.60
69626;DHT22;56847;51.984;5.088;2022-12-18T15:26:18;3.00;76.50
69626;DHT22;56847;51.984;5.088;2022-12-18T15:28:51;3.00;76.50
69626;DHT22;56847;51.984;5.088;2022-12-18T15:31:31;3.00;76.60
69626;DHT22;56847;51.984;5.088;2022-12-18T15:34:19;3.10;76.50
69626;DHT22;56847;51.984;5.088;2022-12-18T15:36:50;3.00;76.50
69626;DHT22;56847;51.984;5.088;2022-12-18T15:39:17;3.00;76.10
69626;DHT22;56847;51.984;5.088;2022-12-18T15:41:44;3.00;76.30
69626;DHT22;56847;51.984;5.088;2022-12-18T15:44:35;3.00;76.40
69626;DHT22;56847;51.984;5.088;2022-12-18T15:47:02;3.00;76.40
69626;DHT22;56847;51.984;5.088;2022-12-18T15:49:29;3.10;76.50
69626;DHT22;56847;51.984;5.088;2022-12-18T15:51:59;3.10;76.60
69626;DHT22;56847;51.984;5.088;2022-12-18T15:54:28;3.10;76.50
69626;DHT22;56847;51.984;5.088;2022-12-18T15:57:14;3.10;76.60
69626;DHT22;56847;51.984;5.088;2022-12-18T15:59:56;3.10;76.60
69626;DHT22;56847;51.984;5.088;2022-12-18T16:02:25;3.10;76.60
69626;DHT22;56847;51.984;5.088;2022-12-18T16:04:56;3.10;76.50
69626;DHT22;56847;51.984;5.088;2022-12-18T16:07:23;3.10;76.30
69626;DHT22;56847;51.984;5.088;2022-12-18T16:09:56;3.10;76.30
69626;DHT22;56847;51.984;5.088;2022-12-18T16:12:25;3.10;76.30
69626;DHT22;56847;51.984;5.088;2022-12-18T16:14:53;3.10;76.30
69626;DHT22;56847;51.984;5.088;2022-12-18T16:17:19;3.10;76.40
69626;DHT22;56847;51.984;5.088;2022-12-18T16:19:46;3.20;76.50
69626;DHT22;56847;51.984;5.088;2022-12-18T16:22:41;3.20;76.40
69626;DHT22;56847;51.984;5.088;2022-12-18T16:27:46;3.20;76.10
69626;DHT22;56847;51.984;5.088;2022-12-18T16:30:23;3.10;76.10
69626;DHT22;56847;51.984;5.088;2022-12-18T16:32:57;3.20;76.20
69626;DHT22;56847;51.984;5.088;2022-12-18T16:35:26;3.20;75.80
69626;DHT22;56847;51.984;5.088;2022-12-18T16:37:53;3.20;76.20
69626;DHT22;56847;51.984;5.088;2022-12-18T16:40:20;3.20;76.00
69626;DHT22;56847;51.984;5.088;2022-12-18T16:42:47;3.20;76.00
69626;DHT22;56847;51.984;5.088;2022-12-18T16:45:17;3.20;76.20
69626;DHT22;56847;51.984;5.088;2022-12-18T16:47:45;3.20;76.10
69626;DHT22;56847;51.984;5.088;2022-12-18T16:50:12;3.20;76.00
69626;DHT22;56847;51.984;5.088;2022-12-18T16:52:39;3.20;76.10
69626;DHT22;56847;51.984;5.088;2022-12-18T16:55:07;3.20;75.90
69626;DHT22;56847;51.984;5.088;2022-12-18T16:57:34;3.30;76.10
69626;DHT22;56847;51.984;5.088;2022-12-18T17:00:03;3.30;76.20
69626;DHT22;56847;51.984;5.088;2022-12-18T17:02:31;3.30;76.30
69626;DHT22;56847;51.984;5.088;2022-12-18T17:05:00;3.30;76.30
69626;DHT22;56847;51.984;5.088;2022-12-18T17:07:27;3.30;76.10
69626;DHT22;56847;51.984;5.088;2022-12-18T17:09:55;3.30;75.90
69626;DHT22;56847;51.984;5.088;2022-12-18T17:12:22;3.30;75.60
69626;DHT22;56847;51.984;5.088;2022-12-18T17:14:50;3.30;75.70
69626;DHT22;56847;51.984;5.088;2022-12-18T17:17:17;3.30;75.90
69626;DHT22;56847;51.984;5.088;2022-12-18T17:19:49;3.30;75.80
69626;DHT22;56847;51.984;5.088;2022-12-18T17:22:17;3.30;75.70
69626;DHT22;56847;51.984;5.088;2022-12-18T17:24:47;3.40;75.70
69626;DHT22;56847;51.984;5.088;2022-12-18T17:27:14;3.40;75.50
69626;DHT22;56847;51.984;5.088;2022-12-18T17:29:41;3.40;75.50
69626;DHT22;56847;51.984;5.088;2022-12-18T17:32:14;3.40;75.40
69626;DHT22;56847;51.984;5.088;2022-12-18T17:34:41;3.40;75.70
69626;DHT22;56847;51.984;5.088;2022-12-18T17:37:08;3.40;75.60
69626;DHT22;56847;51.984;5.088;2022-12-18T17:39:35;3.40;75.50
69626;DHT22;56847;51.984;5.088;2022-12-18T17:42:02;3.40;75.80
69626;DHT22;56847;51.984;5.088;2022-12-18T17:44:30;3.40;75.90
69626;DHT22;56847;51.984;5.088;2022-12-18T17:46:59;3.50;75.60
69626;DHT22;56847;51.984;5.088;2022-12-18T17:49:26;3.50;75.40
69626;DHT22;56847;51.984;5.088;2022-12-18T17:51:54;3.50;75.40
69626;DHT22;56847;51.984;5.088;2022-12-18T17:54:21;3.50;75.50
69626;DHT22;56847;51.984;5.088;2022-12-18T17:56:48;3.50;75.50
69626;DHT22;56847;51.984;5.088;2022-12-18T17:59:15;3.50;75.30
69626;DHT22;56847;51.984;5.088;2022-12-18T18:01:42;3.50;75.30
69626;DHT22;56847;51.984;5.088;2022-12-18T18:04:11;3.60;75.20
69626;DHT22;56847;51.984;5.088;2022-12-18T18:06:39;3.60;75.00
69626;DHT22;56847;51.984;5.088;2022-12-18T18:09:06;3.60;75.20
69626;DHT22;56847;51.984;5.088;2022-12-18T18:11:43;3.60;75.30
69626;DHT22;56847;51.984;5.088;2022-12-18T18:14:32;3.60;75.40
69626;DHT22;56847;51.984;5.088;2022-12-18T18:16:59;3.60;75.40
69626;DHT22;56847;51.984;5.088;2022-12-18T18:19:31;3.60;75.00
69626;DHT22;56847;51.984;5.088;2022-12-18T18:22:02;3.60;74.80
69626;DHT22;56847;51.984;5.088;2022-12-18T18:24:30;3.60;74.60
69626;DHT22;56847;51.984;5.088;2022-12-18T18:26:58;3.60;75.00
69626;DHT22;56847;51.984;5.088;2022-12-18T18:29:27;3.60;74.80
69626;DHT22;56847;51.984;5.088;2022-12-18T18:31:56;3.70;75.00
69626;DHT22;56847;51.984;5.088;2022-12-18T18:34:26;3.70;75.10
69626;DHT22;56847;51.984;5.088;2022-12-18T18:36:54;3.70;75.20
69626;DHT22;56847;51.984;5.088;2022-12-18T18:39:22;3.70;75.00
69626;DHT22;56847;51.984;5.088;2022-12-18T18:41:49;3.70;75.20
69626;DHT22;56847;51.984;5.088;2022-12-18T18:44:18;3.70;74.90
69626;DHT22;56847;51.984;5.088;2022-12-18T18:46:53;3.80;75.00
69626;DHT22;56847;51.984;5.088;2022-12-18T18:49:21;3.80;75.00
69626;DHT22;56847;51.984;5.088;2022-12-18T18:51:50;3.80;75.10
69626;DHT22;56847;51.984;5.088;2022-12-18T18:54:17;3.80;75.30
69626;DHT22;56847;51.984;5.088;2022-12-18T18:56:44;3.80;75.30
69626;DHT22;56847;51.984;5.088;2022-12-18T18:59:31;3.80;75.00
69626;DHT22;56847;51.984;5.088;2022-12-18T19:01:59;3.80;75.10
69626;DHT22;56847;51.984;5.088;2022-12-18T19:04:31;3.80;75.00
69626;DHT22;56847;51.984;5.088;2022-12-18T19:06:59;3.90;75.20
69626;DHT22;56847;51.984;5.088;2022-12-18T19:09:27;3.80;75.10
69626;DHT22;56847;51.984;5.088;2022-12-18T19:11:55;3.90;75.20
69626;DHT22;56847;51.984;5.088;2022-12-18T19:14:41;3.90;75.10
69626;DHT22;56847;51.984;5.088;2022-12-18T19:17:09;3.90;75.30
69626;DHT22;56847;51.984;5.088;2022-12-18T19:19:36;3.90;75.40
69626;DHT22;56847;51.984;5.088;2022-12-18T19:22:03;3.90;75.50
69626;DHT22;56847;51.984;5.088;2022-12-18T19:24:34;3.90;75.50
69626;DHT22;56847;51.984;5.088;2022-12-18T19:27:02;3.90;75.40
69626;DHT22;56847;51.984;5.088;2022-12-18T19:29:29;3.90;75.70
69626;DHT22;56847;51.984;5.088;2022-12-18T19:31:56;3.90;75.80
69626;DHT22;56847;51.984;5.088;2022-12-18T19:34:23;3.90;75.90
69626;DHT22;56847;51.984;5.088;2022-12-18T19:36:51;3.90;75.90
69626;DHT22;56847;51.984;5.088;2022-12-18T19:39:25;3.90;76.10
69626;DHT22;56847;51.984;5.088;2022-12-18T19:41:52;4.00;76.20
69626;DHT22;56847;51.984;5.088;2022-12-18T19:44:20;3.90;76.30
69626;DHT22;56847;51.984;5.088;2022-12-18T19:46:49;3.90;76.50
69626;DHT22;56847;51.984;5.088;2022-12-18T19:49:23;3.90;76.50
69626;DHT22;56847;51.984;5.088;2022-12-18T19:51:50;4.00;76.60
69626;DHT22;56847;51.984;5.088;2022-12-18T19:54:17;4.00;76.70
69626;DHT22;56847;51.984;5.088;2022-12-18T19:56:45;4.00;76.80
69626;DHT22;56847;51.984;5.088;2022-12-18T19:59:12;4.00;76.80
69626;DHT22;56847;51.984;5.088;2022-12-18T20:01:40;4.00;76.80
69626;DHT22;56847;51.984;5.088;2022-12-18T20:04:12;3.90;76.70
69626;DHT22;56847;51.984;5.088;2022-12-18T20:06:48;4.00;76.90
69626;DHT22;56847;51.984;5.088;2022-12-18T20:09:16;4.00;77.10
69626;DHT22;56847;51.984;5.088;2022-12-18T20:11:45;4.00;77.20
69626;DHT22;56847;51.984;5.088;2022-12-18T20:14:16;4.00;77.20
69626;DHT22;56847;51.984;5.088;2022-12-18T20:16:50;4.00;77.30
69626;DHT22;56847;51.984;5.088;2022-12-18T20:19:20;4.00;77.20
69626;DHT22;56847;51.984;5.088;2022-12-18T20:21:48;4.00;77.20
69626;DHT22;56847;51.984;5.088;2022-12-18T20:24:18;4.00;77.40
69626;DHT22;56847;51.984;5.088;2022-12-18T20:26:46;4.00;77.50
69626;DHT22;56847;51.984;5.088;2022-12-18T20:29:13;4.00;77.50
69626;DHT22;56847;51.984;5.088;2022-12-18T20:31:46;4.00;77.60
69626;DHT22;56847;51.984;5.088;2022-12-18T20:34:17;4.00;77.70
69626;DHT22;56847;51.984;5.088;2022-12-18T20:36:45;4.00;77.80
69626;DHT22;56847;51.984;5.088;2022-12-18T20:39:12;4.00;77.90
69626;DHT22;56847;51.984;5.088;2022-12-18T20:41:41;4.00;78.00
69626;DHT22;56847;51.984;5.088;2022-12-18T20:44:13;4.00;78.00